createdAt,value
2023-03-06T00:01:50.126Z,92711.72
2023-03-06T00:04:54.096Z,92704.63
2023-03-06T00:07:57.491Z,92710.97
2023-03-06T00:11:01.469Z,92706.16
2023-03-06T00:14:04.961Z,92707.66
2023-03-06T00:17:08.621Z,92711.94
2023-03-06T00:20:12.862Z,92712.03
2023-03-06T00:23:16.145Z,92706.22
2023-03-06T00:26:19.467Z,92707.72
2023-03-06T00:29:22.991Z,92703.00
2023-03-06T00:32:27.371Z,92695.06
2023-03-06T00:35:32.001Z,92698.44
2023-03-06T00:38:36.331Z,92697.72
2023-03-06T00:41:39.717Z,92698.88
2023-03-06T00:44:43.040Z,92696.16
2023-03-06T00:47:46.311Z,92700.09
2023-03-06T00:50:50.938Z,92705.06
2023-03-06T00:53:54.161Z,92701.09
2023-03-06T00:56:57.403Z,92690.75
2023-03-06T01:00:01.112Z,92699.22
2023-03-06T01:03:04.475Z,92695.97
2023-03-06T01:06:08.172Z,92694.09
2023-03-06T01:09:11.731Z,92693.91
2023-03-06T01:12:15.021Z,92695.88
2023-03-06T01:15:18.325Z,92687.28
2023-03-06T01:18:21.529Z,92690.88
2023-03-06T01:21:25.162Z,92689.38
2023-03-06T01:24:29.280Z,92688.19
2023-03-06T01:27:33.338Z,92680.69
2023-03-06T01:30:36.531Z,92671.00
2023-03-06T01:33:39.932Z,92667.34
2023-03-06T01:36:43.120Z,92663.78
2023-03-06T01:39:46.545Z,92658.28
2023-03-06T01:42:51.202Z,92659.88
2023-03-06T01:46:12.824Z,92667.28
2023-03-06T01:49:27.424Z,92654.19
2023-03-06T01:52:49.056Z,92646.88
2023-03-06T01:55:52.525Z,92640.09
2023-03-06T01:58:55.972Z,92635.41
2023-03-06T02:02:02.566Z,92633.88
2023-03-06T02:05:07.407Z,92628.38
2023-03-06T02:08:11.724Z,92626.66
2023-03-06T02:11:19.914Z,92618.31
2023-03-06T02:14:24.296Z,92613.22
2023-03-06T02:17:28.599Z,92613.34
2023-03-06T02:20:48.877Z,92604.41
2023-03-06T02:23:58.369Z,92606.66
2023-03-06T02:27:05.250Z,92597.66
2023-03-06T02:30:11.008Z,92603.72
2023-03-06T02:33:19.620Z,92597.41
2023-03-06T02:36:22.934Z,92587.84
2023-03-06T02:39:28.629Z,92580.41
2023-03-06T02:42:32.105Z,92583.53
2023-03-06T02:45:46.203Z,92576.16
2023-03-06T02:48:49.496Z,92571.75
2023-03-06T02:51:52.864Z,92559.78
2023-03-06T02:54:56.241Z,92554.44
2023-03-06T02:58:00.335Z,92557.22
2023-03-06T03:01:05.125Z,92549.84
2023-03-06T03:04:09.026Z,92536.06
2023-03-06T03:07:13.602Z,92539.06
2023-03-06T03:10:17.348Z,92539.13
2023-03-06T03:13:21.432Z,92528.75
2023-03-06T03:16:25.659Z,92525.84
2023-03-06T03:19:29.118Z,92519.63
2023-03-06T03:22:32.591Z,92514.03
2023-03-06T03:25:35.863Z,92505.84
2023-03-06T03:28:39.527Z,92492.50
2023-03-06T03:31:42.983Z,92480.97
2023-03-06T03:34:46.250Z,92481.13
2023-03-06T03:37:49.863Z,92479.44
2023-03-06T03:40:53.157Z,92475.75
2023-03-06T03:43:56.831Z,92469.47
2023-03-06T03:47:00.508Z,92464.56
2023-03-06T03:50:04.097Z,92466.72
2023-03-06T03:53:07.748Z,92457.84
2023-03-06T03:56:11.751Z,92452.19
2023-03-06T03:59:22.253Z,92443.19
2023-03-06T04:02:40.510Z,92439.94
2023-03-06T04:06:01.141Z,92432.84
2023-03-06T04:09:05.286Z,92426.41
2023-03-06T04:12:09.305Z,92421.94
2023-03-06T04:15:14.355Z,92425.78
2023-03-06T04:18:18.176Z,92409.69
2023-03-06T04:21:22.064Z,92401.69
2023-03-06T04:24:25.382Z,92396.88
2023-03-06T04:27:28.715Z,92390.75
2023-03-06T04:30:32.604Z,92392.34
2023-03-06T04:33:36.061Z,92391.91
2023-03-06T04:36:39.385Z,92380.34
2023-03-06T04:39:47.310Z,92383.59
2023-03-06T04:42:50.550Z,92383.34
2023-03-06T04:45:53.874Z,92370.94
2023-03-06T04:48:57.164Z,92368.28
2023-03-06T04:52:00.581Z,92367.81
2023-03-06T04:55:09.322Z,92357.50
2023-03-06T04:58:14.871Z,92357.63
2023-03-06T05:01:18.171Z,92346.81
2023-03-06T05:04:21.481Z,92339.91
2023-03-06T05:07:24.847Z,92333.03
2023-03-06T05:10:28.689Z,92328.69
2023-03-06T05:13:31.980Z,92326.44
2023-03-06T05:16:35.307Z,92332.66
2023-03-06T05:19:38.774Z,92312.06
2023-03-06T05:22:42.434Z,92314.72
2023-03-06T05:25:45.815Z,92309.59
2023-03-06T05:28:49.066Z,92307.03
2023-03-06T05:31:52.450Z,92314.22
2023-03-06T05:34:56.156Z,92298.75
2023-03-06T05:37:59.412Z,92285.88
2023-03-06T05:41:04.030Z,92282.00
2023-03-06T05:44:07.663Z,92274.25
2023-03-06T05:47:12.651Z,92279.41
2023-03-06T05:50:15.677Z,92269.81
2023-03-06T05:53:18.996Z,92261.50
2023-03-06T05:56:22.609Z,92262.84
2023-03-06T05:59:30.065Z,92254.47
2023-03-06T06:02:33.355Z,92252.41
2023-03-06T06:05:40.750Z,92249.16
2023-03-06T06:08:44.350Z,92233.00
2023-03-06T06:11:47.648Z,92233.72
2023-03-06T06:14:50.961Z,92236.38
2023-03-06T06:17:54.125Z,92234.50
2023-03-06T06:20:57.413Z,92235.84
2023-03-06T06:24:00.691Z,92233.19
2023-03-06T06:27:04.677Z,92224.13
2023-03-06T06:30:09.548Z,92233.25
2023-03-06T06:33:12.585Z,92228.13
2023-03-06T06:36:25.130Z,92217.06
2023-03-06T06:39:29.497Z,92224.75
2023-03-06T06:42:39.040Z,92218.28
2023-03-06T06:45:45.019Z,92222.72
2023-03-06T06:48:57.267Z,92222.69
2023-03-06T06:52:00.911Z,92209.09
2023-03-06T06:55:04.193Z,92213.00
2023-03-06T06:58:07.502Z,92206.50
2023-03-06T07:01:13.513Z,92199.41
2023-03-06T07:04:17.145Z,92200.69
2023-03-06T07:07:20.379Z,92195.50
2023-03-06T07:10:24.113Z,92188.38
2023-03-06T07:13:27.466Z,92188.31
2023-03-06T07:16:30.756Z,92183.09
2023-03-06T07:19:34.353Z,92177.84
2023-03-06T07:22:50.381Z,92173.25
2023-03-06T07:25:55.868Z,92167.41
2023-03-06T07:28:59.292Z,92160.25
2023-03-06T07:32:02.735Z,92152.47
2023-03-06T07:35:19.805Z,92155.72
2023-03-06T07:38:24.033Z,92147.28
2023-03-06T07:41:27.877Z,92144.66
2023-03-06T07:44:31.141Z,92133.69
2023-03-06T07:47:34.341Z,92136.94
2023-03-06T07:50:39.749Z,92135.00
2023-03-06T07:53:43.049Z,92130.47
2023-03-06T07:56:46.339Z,92131.75
2023-03-06T07:59:49.537Z,92123.94
2023-03-06T08:02:52.819Z,92122.66
2023-03-06T08:05:56.129Z,92120.00
2023-03-06T08:08:59.486Z,92110.94
2023-03-06T08:12:03.164Z,92113.47
2023-03-06T08:15:06.990Z,92111.38
2023-03-06T08:18:10.228Z,92098.34
2023-03-06T08:21:16.734Z,92101.53
2023-03-06T08:24:20.164Z,92096.97
2023-03-06T08:27:23.514Z,92103.47
2023-03-06T08:30:26.721Z,92091.78
2023-03-06T08:33:29.962Z,92086.59
2023-03-06T08:36:33.822Z,92077.44
2023-03-06T08:39:37.076Z,92070.88
2023-03-06T08:42:40.411Z,92065.03
2023-03-06T08:45:43.755Z,92058.47
2023-03-06T08:48:50.597Z,92061.00
2023-03-06T08:51:53.817Z,92056.38
2023-03-06T08:54:58.706Z,92058.56
2023-03-06T08:58:02.790Z,92062.16
2023-03-06T09:01:08.090Z,92059.19
2023-03-06T09:04:12.592Z,92051.91
2023-03-06T09:07:15.994Z,92049.75
2023-03-06T09:10:21.658Z,92044.34
2023-03-06T09:13:24.964Z,92025.50
2023-03-06T09:16:28.449Z,92021.78
2023-03-06T09:19:32.018Z,92027.03
2023-03-06T09:22:35.472Z,92018.59
2023-03-06T09:25:38.702Z,92018.59
2023-03-06T09:28:42.511Z,92022.50
2023-03-06T09:31:46.510Z,92015.91
2023-03-06T09:34:50.130Z,92018.34
2023-03-06T09:37:53.426Z,92018.31
2023-03-06T09:41:00.869Z,92013.09
2023-03-06T09:44:09.781Z,92011.06
2023-03-06T09:47:34.622Z,92003.31
2023-03-06T09:51:02.236Z,91998.06
2023-03-06T09:54:16.023Z,91998.72
2023-03-06T09:57:28.520Z,91991.50
2023-03-06T10:00:57.112Z,91973.97
2023-03-06T10:04:18.757Z,91971.91
2023-03-06T10:07:47.433Z,91977.69
2023-03-06T10:11:06.359Z,91972.41
2023-03-06T10:14:28.616Z,91967.75
2023-03-06T10:17:42.986Z,91963.88
2023-03-06T10:21:13.416Z,91967.03
2023-03-06T10:24:32.068Z,91948.28
2023-03-06T10:27:57.229Z,91944.28
2023-03-06T10:31:17.457Z,91946.13
2023-03-06T10:34:29.517Z,91937.09
2023-03-06T10:37:32.727Z,91930.66
2023-03-06T10:40:51.754Z,91938.50
2023-03-06T10:44:01.100Z,91937.84
2023-03-06T10:47:35.592Z,91929.41
2023-03-06T10:50:39.000Z,91938.41
2023-03-06T10:53:51.527Z,91929.44
2023-03-06T10:56:55.031Z,91937.84
2023-03-06T11:00:07.610Z,91939.88
2023-03-06T11:03:21.082Z,91944.97
2023-03-06T11:06:36.347Z,91939.09
2023-03-06T11:09:39.703Z,91944.97
2023-03-06T11:12:44.280Z,91944.97
2023-03-06T11:16:25.769Z,91941.03
2023-03-06T11:19:30.486Z,91944.16
2023-03-06T11:22:34.309Z,91930.66
2023-03-06T11:25:51.325Z,91935.75
2023-03-06T11:29:19.575Z,91920.34
2023-03-06T11:32:30.750Z,91923.56
2023-03-06T11:35:44.614Z,91922.84
2023-03-06T11:38:53.266Z,91914.44
2023-03-06T11:42:07.470Z,91919.69
2023-03-06T11:45:38.073Z,91923.53
2023-03-06T11:48:53.039Z,91915.81
2023-03-06T11:52:00.321Z,91909.94
2023-03-06T11:55:03.892Z,91911.22
2023-03-06T11:58:23.039Z,91904.78
2023-03-06T12:01:42.613Z,91907.47
2023-03-06T12:05:07.691Z,91899.75
2023-03-06T12:08:22.941Z,91895.81
2023-03-06T12:11:46.073Z,91889.38
2023-03-06T12:15:16.996Z,91875.06
2023-03-06T12:18:44.970Z,91880.78
2023-03-06T12:22:06.560Z,91867.84
2023-03-06T12:25:26.380Z,91863.94
2023-03-06T12:29:08.312Z,91859.28
2023-03-06T12:32:35.854Z,91854.69
2023-03-06T12:35:52.039Z,91842.44
2023-03-06T12:39:05.459Z,91848.75
2023-03-06T12:42:34.610Z,91841.00
2023-03-06T12:45:39.086Z,91837.13
2023-03-06T12:48:46.641Z,91839.06
2023-03-06T12:51:50.036Z,91819.03
2023-03-06T12:54:55.325Z,91816.44
2023-03-06T12:58:37.379Z,91817.09
2023-03-06T13:02:09.254Z,91813.81
2023-03-06T13:05:18.332Z,91818.91
2023-03-06T13:08:44.244Z,91823.97
2023-03-06T13:12:18.327Z,91823.34
2023-03-06T13:15:30.820Z,91822.72
2023-03-06T13:18:34.175Z,91815.63
2023-03-06T13:21:43.398Z,91815.59
2023-03-06T13:24:46.731Z,91811.06
2023-03-06T13:27:55.887Z,91808.50
2023-03-06T13:30:59.328Z,91813.69
2023-03-06T13:34:33.203Z,91805.97
2023-03-06T13:37:39.352Z,91811.09
2023-03-06T13:40:42.663Z,91810.41
2023-03-06T13:43:46.881Z,91815.50
2023-03-06T13:47:20.435Z,91802.06
2023-03-06T13:50:34.286Z,91799.47
2023-03-06T13:53:48.336Z,91798.75
2023-03-06T13:57:02.563Z,91794.84
2023-03-06T14:00:11.767Z,91791.56
2023-03-06T14:03:48.492Z,91787.00
2023-03-06T14:07:14.625Z,91795.34
2023-03-06T14:10:23.184Z,91793.25
2023-03-06T14:13:45.268Z,91788.06
2023-03-06T14:16:51.720Z,91789.91
2023-03-06T14:19:58.277Z,91782.09
2023-03-06T14:23:22.624Z,91786.50
2023-03-06T14:26:28.349Z,91782.66
2023-03-06T14:29:34.424Z,91783.91
2023-03-06T14:32:39.883Z,91784.56
2023-03-06T14:35:43.274Z,91775.47
2023-03-06T14:38:52.265Z,91775.53
2023-03-06T14:42:17.378Z,91771.66
2023-03-06T14:45:21.295Z,91775.53
2023-03-06T14:48:27.762Z,91781.88
2023-03-06T14:51:34.006Z,91774.81
2023-03-06T14:54:40.253Z,91785.22
2023-03-06T14:57:43.835Z,91780.69
2023-03-06T15:00:50.781Z,91781.44
2023-03-06T15:03:58.022Z,91789.88
2023-03-06T15:07:01.398Z,91787.97
2023-03-06T15:10:07.226Z,91784.13
2023-03-06T15:13:25.760Z,91787.44
2023-03-06T15:16:31.042Z,91786.81
2023-03-06T15:19:41.492Z,91787.63
2023-03-06T15:22:44.938Z,91784.53
2023-03-06T15:26:00.850Z,91789.84
2023-03-06T15:29:10.596Z,91792.56
2023-03-06T15:32:36.482Z,91786.25
2023-03-06T15:35:40.098Z,91790.13
2023-03-06T15:38:46.237Z,91789.53
2023-03-06T15:41:49.891Z,91790.31
2023-03-06T15:45:04.326Z,91785.22
2023-03-06T15:48:17.815Z,91794.91
2023-03-06T15:51:21.964Z,91791.69
2023-03-06T15:54:25.991Z,91802.69
2023-03-06T15:57:30.314Z,91803.94
2023-03-06T16:00:40.719Z,91801.38
2023-03-06T16:03:46.207Z,91791.72
2023-03-06T16:06:50.029Z,91793.59
2023-03-06T16:09:54.231Z,91789.72
2023-03-06T16:13:05.215Z,91789.69
2023-03-06T16:16:15.829Z,91789.69
2023-03-06T16:19:27.168Z,91782.63
2023-03-06T16:22:32.189Z,91776.75
2023-03-06T16:25:35.610Z,91772.78
2023-03-06T16:28:42.235Z,91772.13
2023-03-06T16:31:45.483Z,91779.22
2023-03-06T16:34:49.249Z,91779.22
2023-03-06T16:37:53.004Z,91784.38
2023-03-06T16:40:57.153Z,91788.28
2023-03-06T16:44:00.453Z,91782.31
2023-03-06T16:47:04.051Z,91784.19
2023-03-06T16:50:16.736Z,91776.41
2023-03-06T16:53:20.186Z,91788.56
2023-03-06T16:56:23.547Z,91793.03
2023-03-06T16:59:26.815Z,91797.50
2023-03-06T17:02:30.399Z,91788.50
2023-03-06T17:05:35.006Z,91795.56
2023-03-06T17:08:38.356Z,91808.38
2023-03-06T17:11:44.053Z,91807.00
2023-03-06T17:14:47.304Z,91813.41
2023-03-06T17:17:52.348Z,91821.13
2023-03-06T17:20:56.557Z,91818.63
2023-03-06T17:24:02.459Z,91823.69
2023-03-06T17:27:06.027Z,91824.31
2023-03-06T17:30:10.892Z,91827.53
2023-03-06T17:33:13.778Z,91821.13
2023-03-06T17:36:17.962Z,91827.53
2023-03-06T17:39:21.203Z,91833.88
2023-03-06T17:42:24.604Z,91834.44
2023-03-06T17:45:29.792Z,91844.00
2023-03-06T17:48:33.308Z,91846.50
2023-03-06T17:51:36.659Z,91858.00
2023-03-06T17:54:40.011Z,91857.91
2023-03-06T17:57:43.220Z,91860.28
2023-03-06T18:00:46.673Z,91867.19
2023-03-06T18:03:51.720Z,91869.66
2023-03-06T18:06:55.082Z,91866.28
2023-03-06T18:09:58.481Z,91870.69
2023-03-06T18:13:01.857Z,91867.97
2023-03-06T18:16:06.388Z,91871.19
2023-03-06T18:19:12.046Z,91871.84
2023-03-06T18:22:16.083Z,91874.31
2023-03-06T18:25:19.328Z,91872.97
2023-03-06T18:28:22.514Z,91870.34
2023-03-06T18:31:34.080Z,91862.53
2023-03-06T18:34:38.137Z,91866.28
2023-03-06T18:37:41.356Z,91874.47
2023-03-06T18:40:44.603Z,91882.16
2023-03-06T18:43:53.558Z,91882.81
2023-03-06T18:46:56.918Z,91877.66
2023-03-06T18:50:00.279Z,91881.53
2023-03-06T18:53:03.606Z,91885.38
2023-03-06T18:56:07.911Z,91896.84
2023-03-06T18:59:16.420Z,91896.19
2023-03-06T19:02:21.955Z,91894.22
2023-03-06T19:05:25.204Z,91903.41
2023-03-06T19:08:28.474Z,91906.66
2023-03-06T19:11:32.920Z,91910.59
2023-03-06T19:14:37.064Z,91911.94
2023-03-06T19:17:40.386Z,91915.81
2023-03-06T19:20:44.856Z,91910.69
2023-03-06T19:23:48.620Z,91914.44
2023-03-06T19:26:52.028Z,91911.03
2023-03-06T19:29:55.195Z,91912.84
2023-03-06T19:32:58.724Z,91921.22
2023-03-06T19:36:03.441Z,91921.88
2023-03-06T19:39:08.117Z,91929.00
2023-03-06T19:42:13.675Z,91933.53
2023-03-06T19:45:17.251Z,91936.78
2023-03-06T19:48:22.698Z,91946.25
2023-03-06T19:51:27.083Z,91944.78
2023-03-06T19:54:32.413Z,91958.19
2023-03-06T19:57:35.912Z,91955.63
2023-03-06T20:00:39.471Z,91961.44
2023-03-06T20:03:43.560Z,91962.19
2023-03-06T20:06:47.464Z,91961.59
2023-03-06T20:09:50.858Z,91964.13
2023-03-06T20:12:54.300Z,91961.53
2023-03-06T20:15:58.584Z,91960.91
2023-03-06T20:19:02.462Z,91963.50
2023-03-06T20:22:05.803Z,91965.41
2023-03-06T20:25:09.731Z,91975.53
2023-03-06T20:28:12.921Z,91977.94
2023-03-06T20:31:21.398Z,91975.91
2023-03-06T20:34:26.471Z,91985.38
2023-03-06T20:37:30.222Z,91988.31
2023-03-06T20:40:33.473Z,91993.38
2023-03-06T20:43:36.752Z,92001.53
2023-03-06T20:46:40.143Z,92004.56
2023-03-06T20:49:43.575Z,92015.38
2023-03-06T20:52:46.781Z,92019.16
2023-03-06T20:55:50.812Z,92024.22
2023-03-06T20:58:54.732Z,92025.38
2023-03-06T21:01:58.032Z,92032.91
2023-03-06T21:05:01.607Z,92041.06
2023-03-06T21:08:05.317Z,92039.63
2023-03-06T21:11:08.840Z,92045.34
2023-03-06T21:14:13.964Z,92054.38
2023-03-06T21:17:17.382Z,92066.66
2023-03-06T21:20:20.702Z,92069.94
2023-03-06T21:23:23.971Z,92075.72
2023-03-06T21:26:30.756Z,92080.22
2023-03-06T21:29:34.094Z,92090.59
2023-03-06T21:32:37.370Z,92106.00
2023-03-06T21:35:45.098Z,92104.09
2023-03-06T21:38:49.757Z,92108.56
2023-03-06T21:41:53.058Z,92128.38
2023-03-06T21:44:56.284Z,92125.75
2023-03-06T21:48:00.839Z,92139.22
2023-03-06T21:51:24.827Z,92134.69
2023-03-06T21:54:29.930Z,92137.16
2023-03-06T21:57:33.247Z,92141.72
2023-03-06T22:00:36.901Z,92145.63
2023-03-06T22:03:40.426Z,92158.44
2023-03-06T22:06:43.719Z,92165.44
2023-03-06T22:09:47.101Z,92171.09
2023-03-06T22:12:50.458Z,92182.69
2023-03-06T22:15:54.337Z,92185.25
2023-03-06T22:18:57.894Z,92182.78
2023-03-06T22:22:01.181Z,92194.44
2023-03-06T22:25:05.704Z,92195.09
2023-03-06T22:28:09.113Z,92200.31
2023-03-06T22:31:16.033Z,92210.09
2023-03-06T22:34:19.580Z,92210.84
2023-03-06T22:37:22.943Z,92207.03
2023-03-06T22:40:26.774Z,92207.72
2023-03-06T22:43:30.741Z,92209.13
2023-03-06T22:46:34.065Z,92218.72
2023-03-06T22:49:38.827Z,92225.22
2023-03-06T22:52:41.881Z,92229.31
2023-03-06T22:55:45.199Z,92238.91
2023-03-06T22:58:48.954Z,92238.91
2023-03-06T23:01:52.238Z,92240.91
2023-03-06T23:04:55.514Z,92249.31
2023-03-06T23:07:58.718Z,92250.72
2023-03-06T23:11:02.040Z,92259.59
2023-03-06T23:14:23.504Z,92264.88
2023-03-06T23:17:45.073Z,92268.88
2023-03-06T23:21:11.921Z,92272.09
2023-03-06T23:24:37.411Z,92277.28
2023-03-06T23:27:40.734Z,92284.47
2023-03-06T23:30:44.199Z,92283.25
2023-03-06T23:33:48.723Z,92289.84
2023-03-06T23:36:51.977Z,92295.31
2023-03-06T23:39:56.401Z,92300.75
2023-03-06T23:42:59.744Z,92298.16
2023-03-06T23:46:03.818Z,92304.09
2023-03-06T23:49:08.129Z,92308.91
2023-03-06T23:52:11.554Z,92310.50
2023-03-06T23:55:14.922Z,92319.06
2023-03-06T23:58:19.794Z,92320.13
